Terminal Aerodrome Forecast
Issued by NWS Austin/San Antonio, TX

Home | Current Version | Previous Version | Text Only | Print | Product List | Glossary On
Versions: 1 2 3 4 5 6 7 8 9 10 11 12 13 14 15 16
334
FTUS44 KEWX 221132
TAFDRT
TAF
KDRT 221132Z 2212/2312 33007KT P6SM SKC
     FM221900 36007KT P6SM SKC
     FM222200 10007KT P6SM SKC=

USA.gov is the U.S. government's official web portal to all federal, state and local government web resources and services.